Time;durP1;ratioP1;P1;durP2;ratioP2;P2;SDS_P1;SDS_P2;PMS_P1;PMS_P2;Temp;Humidity;BMP_temperature;BMP_pressure;BME280_temperature;BME280_humidity;BME280_pressure;Samples;Min_cycle;Max_cycle;Signal;HPM_P1;HPM_P2
2022/10/30 00:00:38;;;;;;;15.73;6.07;;;19.30;98.50;;;;;;5033517;28;20071;-61
2022/10/30 00:03:03;;;;;;;13.13;6.75;;;19.30;98.40;;;;;;5033317;28;20025;-62
2022/10/30 00:05:29;;;;;;;13.63;6.22;;;19.30;98.50;;;;;;5046445;28;20032;-73
2022/10/30 00:07:55;;;;;;;12.45;6.45;;;19.30;98.60;;;;;;5040292;28;20072;-70
2022/10/30 00:10:21;;;;;;;14.18;6.28;;;19.20;98.80;;;;;;5033306;28;20021;-68
2022/10/30 00:12:46;;;;;;;15.95;6.50;;;19.20;98.60;;;;;;5038256;28;20036;-73
2022/10/30 00:15:13;;;;;;;13.85;6.53;;;19.20;98.70;;;;;;5032978;28;20022;-62
2022/10/30 00:17:38;;;;;;;10.10;6.45;;;19.20;98.70;;;;;;5033451;28;20037;-71
2022/10/30 00:20:05;;;;;;;16.52;7.13;;;19.10;98.80;;;;;;5045327;28;20497;-71
2022/10/30 00:22:30;;;;;;;13.95;6.70;;;19.10;98.80;;;;;;5046574;28;20014;-70
2022/10/30 00:24:56;;;;;;;16.33;6.95;;;19.10;98.90;;;;;;5032924;28;20033;-65
2022/10/30 00:27:21;;;;;;;14.60;6.75;;;19.10;98.90;;;;;;5034459;28;20051;-70
2022/10/30 00:29:47;;;;;;;15.93;6.45;;;19.10;98.90;;;;;;5044566;28;20029;-73
2022/10/30 00:32:13;;;;;;;13.50;6.90;;;19.00;98.90;;;;;;5045314;28;20017;-71
2022/10/30 00:34:38;;;;;;;13.98;6.20;;;19.00;98.90;;;;;;5037902;28;20075;-67
2022/10/30 00:37:04;;;;;;;10.50;5.95;;;19.00;99.00;;;;;;5031822;28;20028;-73
2022/10/30 00:39:29;;;;;;;16.27;6.28;;;19.00;99.00;;;;;;5032854;28;20029;-66
2022/10/30 00:41:55;;;;;;;12.35;6.60;;;19.00;99.00;;;;;;5032725;28;20089;-68
2022/10/30 00:44:39;;;;;;;16.67;6.88;;;19.00;99.00;;;;;;5032505;28;20041;-61
2022/10/30 00:47:38;;;;;;;14.75;6.43;;;19.00;99.00;;;;;;5032767;28;20025;-66
2022/10/30 00:50:10;;;;;;;12.98;6.38;;;19.00;99.00;;;;;;5049770;28;20049;-69
2022/10/30 00:52:44;;;;;;;18.75;6.38;;;19.00;99.10;;;;;;5039207;28;20386;-66
2022/10/30 00:55:18;;;;;;;14.00;6.95;;;18.90;99.20;;;;;;5032471;28;20060;-67
2022/10/30 00:57:44;;;;;;;16.00;6.50;;;19.00;99.10;;;;;;5036876;28;20025;-71
2022/10/30 01:00:11;;;;;;;13.07;5.72;;;18.90;99.20;;;;;;5032582;28;20112;-65
2022/10/30 01:02:40;;;;;;;14.65;6.10;;;18.90;99.20;;;;;;5032834;28;20467;-63
2022/10/30 01:05:06;;;;;;;14.38;6.25;;;18.90;99.20;;;;;;5043094;28;20485;-63
2022/10/30 01:07:31;;;;;;;12.27;6.20;;;18.90;99.10;;;;;;5040642;28;20037;-64
2022/10/30 01:09:57;;;;;;;13.98;6.22;;;18.80;99.20;;;;;;5034500;28;20021;-65
2022/10/30 01:12:23;;;;;;;12.98;6.55;;;18.80;99.20;;;;;;5052254;28;20108;-64
2022/10/30 01:14:55;;;;;;;14.20;6.70;;;18.80;99.20;;;;;;5052497;28;20059;-62
2022/10/30 01:17:37;;;;;;;11.77;5.70;;;18.80;99.20;;;;;;5052631;28;20104;-62
2022/10/30 01:20:05;;;;;;;14.88;6.40;;;18.90;99.20;;;;;;5052048;28;20032;-67
2022/10/30 01:22:31;;;;;;;13.18;6.60;;;18.80;99.30;;;;;;5052586;28;20057;-70
2022/10/30 01:25:15;;;;;;;13.02;6.65;;;18.80;99.30;;;;;;5051821;28;20501;-69
2022/10/30 01:27:43;;;;;;;12.15;6.38;;;18.80;99.30;;;;;;5052092;28;20048;-73
2022/10/30 01:30:39;;;;;;;14.23;6.28;;;18.80;99.40;;;;;;5052181;28;20029;-70
2022/10/30 01:33:30;;;;;;;13.65;7.32;;;18.80;99.40;;;;;;5049271;28;20068;-69
2022/10/30 01:36:05;;;;;;;14.32;6.93;;;18.70;99.40;;;;;;5036140;28;20033;-72
2022/10/30 01:38:52;;;;;;;15.25;7.82;;;18.70;99.40;;;;;;5035516;28;20061;-70
2022/10/30 01:41:17;;;;;;;15.68;8.05;;;18.70;99.50;;;;;;5035777;28;20021;-66
2022/10/30 01:43:45;;;;;;;11.50;7.30;;;18.60;99.60;;;;;;5051513;28;20502;-67
2022/10/30 01:46:22;;;;;;;11.75;7.45;;;18.60;99.60;;;;;;5055951;28;20108;-70
2022/10/30 01:49:16;;;;;;;12.18;6.43;;;18.60;99.70;;;;;;5055802;28;20036;-71
2022/10/30 01:51:50;;;;;;;15.00;7.10;;;18.60;99.80;;;;;;5055947;28;20029;-68
2022/10/30 01:54:29;;;;;;;15.75;7.78;;;18.60;99.80;;;;;;5055746;28;20033;-72
2022/10/30 01:57:00;;;;;;;13.88;6.97;;;18.60;99.70;;;;;;5055192;28;20021;-67
2022/10/30 02:00:19;;;;;;;10.30;6.47;;;18.60;99.70;;;;;;5055760;28;20029;-71
2022/10/30 02:02:45;;;;;;;15.40;7.05;;;18.60;99.80;;;;;;5053060;28;20029;-69
2022/10/30 02:05:21;;;;;;;16.40;7.07;;;18.50;99.80;;;;;;5055433;28;20037;-69
2022/10/30 02:07:46;;;;;;;17.25;7.57;;;18.50;99.90;;;;;;5055024;28;20032;-62
2022/10/30 02:10:12;;;;;;;14.13;7.45;;;18.50;99.90;;;;;;5055737;28;20517;-64
2022/10/30 02:12:38;;;;;;;16.20;7.07;;;18.50;99.90;;;;;;5055269;28;20111;-62
2022/10/30 02:15:04;;;;;;;11.75;7.68;;;18.50;99.90;;;;;;5055734;28;20029;-72
2022/10/30 02:17:29;;;;;;;11.02;6.60;;;18.50;99.90;;;;;;5055514;28;20025;-61
2022/10/30 02:19:55;;;;;;;11.70;6.00;;;18.40;99.90;;;;;;5055247;28;20031;-67
2022/10/30 02:22:21;;;;;;;16.75;6.80;;;18.50;99.90;;;;;;5054940;28;20464;-69
2022/10/30 02:24:46;;;;;;;12.73;7.43;;;18.40;99.90;;;;;;5055414;28;20037;-62
2022/10/30 02:27:12;;;;;;;13.68;6.88;;;18.40;99.90;;;;;;5055021;28;20033;-65
2022/10/30 02:29:37;;;;;;;13.25;6.47;;;18.40;99.90;;;;;;5055335;28;20458;-71
2022/10/30 02:32:03;;;;;;;13.63;6.55;;;18.40;99.90;;;;;;5055343;28;20067;-63
2022/10/30 02:34:29;;;;;;;11.70;6.43;;;18.40;99.90;;;;;;5055074;28;20102;-70
2022/10/30 02:36:54;;;;;;;15.85;7.50;;;18.40;99.90;;;;;;5054448;28;20501;-62
2022/10/30 02:39:20;;;;;;;15.57;7.45;;;18.40;99.90;;;;;;5054820;28;20105;-65
2022/10/30 02:41:46;;;;;;;20.75;7.80;;;18.30;99.90;;;;;;5055228;28;20025;-73
2022/10/30 02:44:12;;;;;;;16.63;7.20;;;18.30;99.90;;;;;;5054059;28;20029;-63
2022/10/30 02:46:37;;;;;;;15.23;7.15;;;18.30;99.90;;;;;;5055081;28;20021;-66
2022/10/30 02:49:03;;;;;;;14.65;6.78;;;18.40;99.90;;;;;;5054645;28;20033;-63
2022/10/30 02:51:32;;;;;;;14.05;7.50;;;18.30;99.90;;;;;;5054591;28;20059;-66
2022/10/30 02:53:58;;;;;;;15.27;7.60;;;18.30;99.90;;;;;;5054837;28;20017;-66
2022/10/30 02:56:24;;;;;;;13.40;7.47;;;18.30;99.90;;;;;;5054226;28;20021;-62
2022/10/30 02:58:50;;;;;;;14.32;6.85;;;18.30;99.90;;;;;;5054909;28;20359;-61
2022/10/30 03:01:17;;;;;;;12.68;7.50;;;18.30;99.90;;;;;;5054934;28;20021;-64
2022/10/30 03:03:44;;;;;;;14.65;7.53;;;18.20;99.90;;;;;;5054522;28;20466;-69
2022/10/30 03:06:12;;;;;;;14.95;6.88;;;18.30;99.90;;;;;;5054301;28;20025;-73
2022/10/30 03:08:38;;;;;;;18.42;8.50;;;18.20;99.90;;;;;;5054366;28;20151;-65
2022/10/30 03:11:07;;;;;;;16.42;8.35;;;18.20;99.90;;;;;;5054728;28;20059;-61
2022/10/30 03:13:34;;;;;;;13.88;7.15;;;18.20;99.90;;;;;;5054480;28;20025;-61
2022/10/30 03:16:05;;;;;;;13.40;7.00;;;18.20;99.90;;;;;;5054567;28;20060;-61
2022/10/30 03:18:32;;;;;;;16.00;7.78;;;18.20;99.90;;;;;;5054020;28;20486;-62
2022/10/30 03:20:59;;;;;;;12.95;7.53;;;18.10;99.90;;;;;;5054057;28;20486;-63
2022/10/30 03:23:26;;;;;;;19.38;8.95;;;18.10;99.90;;;;;;5053878;28;20489;-62
2022/10/30 03:25:54;;;;;;;17.90;8.00;;;18.10;99.90;;;;;;5054295;28;20025;-62
2022/10/30 03:28:26;;;;;;;16.63;8.15;;;18.10;99.90;;;;;;5053965;28;20549;-62
2022/10/30 03:30:58;;;;;;;16.48;8.40;;;18.10;99.90;;;;;;5054401;28;20038;-61
2022/10/30 03:33:23;;;;;;;17.35;8.05;;;18.10;99.90;;;;;;5053827;28;20162;-61
2022/10/30 03:35:49;;;;;;;15.68;8.43;;;18.10;99.90;;;;;;5053487;28;20099;-61
2022/10/30 03:38:14;;;;;;;19.83;8.15;;;18.00;99.90;;;;;;5053964;28;20033;-61
2022/10/30 03:40:40;;;;;;;13.80;7.22;;;18.00;99.90;;;;;;5054179;28;20115;-61
2022/10/30 03:43:06;;;;;;;21.90;8.05;;;18.00;99.90;;;;;;5054062;28;20036;-62
2022/10/30 03:45:33;;;;;;;19.58;8.00;;;18.00;99.90;;;;;;5053895;28;20025;-62
2022/10/30 03:48:04;;;;;;;15.27;7.80;;;18.00;99.90;;;;;;5052551;28;20036;-62
2022/10/30 03:50:29;;;;;;;14.35;6.80;;;18.00;99.90;;;;;;5053247;28;20028;-62
2022/10/30 03:52:56;;;;;;;12.88;7.38;;;18.00;99.90;;;;;;5053627;28;20025;-61
2022/10/30 03:55:22;;;;;;;16.13;7.53;;;18.00;99.90;;;;;;5053511;28;20124;-61
2022/10/30 03:57:48;;;;;;;14.75;7.22;;;17.90;99.90;;;;;;5053343;28;20060;-63
2022/10/30 04:00:14;;;;;;;12.32;8.38;;;17.90;99.90;;;;;;5053621;28;20083;-61
2022/10/30 04:02:50;;;;;;;15.48;7.13;;;17.90;99.90;;;;;;5053835;28;20021;-62
2022/10/30 04:05:19;;;;;;;10.13;6.20;;;18.00;99.90;;;;;;5052832;28;20469;-62
2022/10/30 04:07:45;;;;;;;17.02;8.10;;;17.90;99.90;;;;;;5052947;28;20029;-62
2022/10/30 04:10:12;;;;;;;12.13;7.93;;;17.90;99.90;;;;;;5053578;28;20041;-61
2022/10/30 04:12:39;;;;;;;18.27;7.75;;;17.90;99.90;;;;;;5053522;28;20035;-63
2022/10/30 04:15:06;;;;;;;14.40;7.32;;;17.90;99.90;;;;;;5053081;28;20040;-62
2022/10/30 04:17:32;;;;;;;13.65;7.63;;;17.80;99.90;;;;;;5053233;28;20083;-61
2022/10/30 04:19:57;;;;;;;15.40;7.63;;;17.90;99.90;;;;;;5052767;28;20402;-63
2022/10/30 04:22:23;;;;;;;13.23;6.97;;;17.80;99.90;;;;;;5052949;28;20029;-71
2022/10/30 04:24:49;;;;;;;20.00;7.95;;;17.80;99.90;;;;;;5052752;28;20470;-73
2022/10/30 04:27:15;;;;;;;14.00;7.40;;;17.80;99.90;;;;;;5053113;28;20025;-70
2022/10/30 04:29:41;;;;;;;13.85;7.38;;;17.80;99.90;;;;;;5053053;28;20036;-61
2022/10/30 04:32:07;;;;;;;14.25;8.20;;;17.80;99.90;;;;;;5051934;28;20021;-69
2022/10/30 04:34:33;;;;;;;12.77;7.63;;;17.80;99.90;;;;;;5052576;28;20025;-68
2022/10/30 04:36:59;;;;;;;20.38;7.90;;;17.70;99.90;;;;;;5053282;28;20021;-72
2022/10/30 04:39:25;;;;;;;16.92;7.55;;;17.70;99.90;;;;;;5052600;28;20107;-72
2022/10/30 04:41:50;;;;;;;15.00;8.23;;;17.70;99.90;;;;;;5052995;28;20017;-69
2022/10/30 04:44:16;;;;;;;18.60;8.25;;;17.70;99.90;;;;;;5052976;28;20028;-71
2022/10/30 04:46:41;;;;;;;22.25;8.65;;;17.70;99.90;;;;;;5052520;28;20033;-67
2022/10/30 04:49:07;;;;;;;20.40;7.88;;;17.70;99.90;;;;;;5052327;28;20041;-71
2022/10/30 04:51:33;;;;;;;14.38;8.43;;;17.70;99.90;;;;;;5052934;28;20056;-73
2022/10/30 04:53:58;;;;;;;15.32;7.68;;;17.60;99.90;;;;;;5052148;28;20025;-66
2022/10/30 04:56:24;;;;;;;18.08;9.05;;;17.60;99.90;;;;;;5052590;28;20037;-69
2022/10/30 04:58:50;;;;;;;12.27;7.18;;;17.60;99.90;;;;;;5052808;28;20049;-67
2022/10/30 05:01:15;;;;;;;18.02;8.25;;;17.60;99.90;;;;;;5052492;28;20442;-68
2022/10/30 05:03:41;;;;;;;13.98;7.80;;;17.50;99.90;;;;;;5052792;28;20025;-72
2022/10/30 05:06:16;;;;;;;16.08;7.28;;;17.50;99.90;;;;;;5052661;28;20036;-73
2022/10/30 05:08:41;;;;;;;18.13;9.02;;;17.60;99.90;;;;;;5055536;28;20429;-72
2022/10/30 05:11:07;;;;;;;15.35;7.22;;;17.50;99.90;;;;;;5056698;28;20470;-67
2022/10/30 05:13:32;;;;;;;16.63;8.05;;;17.50;99.90;;;;;;5056854;28;20121;-63
2022/10/30 05:15:58;;;;;;;18.30;8.10;;;17.50;99.90;;;;;;5046015;28;20017;-71
2022/10/30 05:18:23;;;;;;;14.23;7.90;;;17.50;99.90;;;;;;5045523;28;20029;-66
2022/10/30 05:20:49;;;;;;;12.02;7.47;;;17.50;99.90;;;;;;5045826;28;20010;-62
2022/10/30 05:23:14;;;;;;;14.40;7.97;;;17.50;99.90;;;;;;5042102;28;20424;-64
2022/10/30 05:25:40;;;;;;;13.05;7.32;;;17.50;99.90;;;;;;5046813;28;20027;-68
2022/10/30 05:28:06;;;;;;;14.68;7.53;;;17.50;99.90;;;;;;5047262;28;20049;-72
2022/10/30 05:30:33;;;;;;;13.38;8.35;;;17.50;99.90;;;;;;5045863;28;20029;-62
2022/10/30 05:33:00;;;;;;;15.02;7.40;;;17.50;99.90;;;;;;5049970;28;20024;-69
2022/10/30 05:35:27;;;;;;;15.60;7.57;;;17.50;99.90;;;;;;5047036;28;20018;-66
2022/10/30 05:37:52;;;;;;;14.77;8.10;;;17.50;99.90;;;;;;5064193;28;20032;-70
2022/10/30 05:40:18;;;;;;;15.32;7.28;;;17.50;99.90;;;;;;5054109;28;20032;-64
2022/10/30 05:42:48;;;;;;;14.13;7.70;;;17.40;99.90;;;;;;5060859;28;20095;-68
2022/10/30 05:45:14;;;;;;;12.82;7.68;;;17.40;99.90;;;;;;5056981;28;20029;-67
2022/10/30 05:47:40;;;;;;;10.93;7.72;;;17.40;99.90;;;;;;5049243;28;20037;-71
2022/10/30 05:50:06;;;;;;;17.02;8.35;;;17.40;99.90;;;;;;5048973;28;20530;-73
2022/10/30 05:52:32;;;;;;;15.00;7.93;;;17.40;99.90;;;;;;5050418;28;20031;-72
2022/10/30 05:54:58;;;;;;;18.00;8.57;;;17.40;99.90;;;;;;5055284;28;20033;-74
2022/10/30 05:57:26;;;;;;;18.75;8.07;;;17.40;99.90;;;;;;5054189;28;20029;-64
2022/10/30 05:59:52;;;;;;;14.48;8.38;;;17.40;99.90;;;;;;5055251;28;20068;-61
2022/10/30 06:02:17;;;;;;;15.45;8.23;;;17.40;99.90;;;;;;5052572;28;20096;-64
2022/10/30 06:04:43;;;;;;;21.58;7.63;;;17.40;99.90;;;;;;5049359;28;20064;-66
2022/10/30 06:07:09;;;;;;;12.13;7.03;;;17.40;99.90;;;;;;5044714;28;20025;-74
2022/10/30 06:09:35;;;;;;;17.05;7.55;;;17.30;99.90;;;;;;5055722;28;20037;-61
2022/10/30 06:12:01;;;;;;;16.58;7.78;;;17.30;99.90;;;;;;5059831;28;20024;-71
2022/10/30 06:14:26;;;;;;;17.33;8.00;;;17.30;99.90;;;;;;5053723;28;20458;-62
2022/10/30 06:16:52;;;;;;;12.02;7.22;;;17.30;99.90;;;;;;5052729;28;20359;-62
2022/10/30 06:19:17;;;;;;;13.98;7.55;;;17.30;99.90;;;;;;5054295;28;20028;-62
2022/10/30 06:21:43;;;;;;;24.60;8.77;;;17.30;99.90;;;;;;5051916;28;20547;-61
2022/10/30 06:24:09;;;;;;;15.32;7.65;;;17.30;99.90;;;;;;5048237;28;20057;-61
2022/10/30 06:26:34;;;;;;;13.45;7.38;;;17.30;99.90;;;;;;5044620;28;20040;-61
2022/10/30 06:29:00;;;;;;;17.58;7.35;;;17.30;99.90;;;;;;5051604;28;20032;-64
2022/10/30 06:31:25;;;;;;;16.02;7.18;;;17.30;99.90;;;;;;5036902;28;20047;-63
2022/10/30 06:33:51;;;;;;;14.52;7.65;;;17.30;99.90;;;;;;5051768;28;20064;-65
2022/10/30 06:36:17;;;;;;;14.50;7.25;;;17.30;99.90;;;;;;5050921;28;20053;-62
2022/10/30 06:38:42;;;;;;;20.15;8.38;;;17.20;99.90;;;;;;5048053;28;20029;-65
2022/10/30 06:41:08;;;;;;;15.15;7.38;;;17.20;99.90;;;;;;5049815;28;20371;-62
2022/10/30 06:43:34;;;;;;;17.92;8.50;;;17.20;99.90;;;;;;5050524;28;20021;-61
2022/10/30 06:46:00;;;;;;;15.80;7.50;;;17.20;99.90;;;;;;5051950;28;20083;-60
2022/10/30 06:48:26;;;;;;;17.83;8.25;;;17.20;99.90;;;;;;5039189;28;20044;-61
2022/10/30 06:50:56;;;;;;;18.60;7.30;;;17.20;99.90;;;;;;5053981;28;20029;-61
2022/10/30 06:53:21;;;;;;;17.23;7.88;;;17.20;99.90;;;;;;5041635;28;20072;-62
2022/10/30 06:55:59;;;;;;;14.05;7.30;;;17.20;99.90;;;;;;5054440;28;20497;-60
2022/10/30 06:58:25;;;;;;;15.02;7.35;;;17.20;99.90;;;;;;5052168;28;20025;-63
2022/10/30 07:00:51;;;;;;;12.82;7.32;;;17.20;99.90;;;;;;5052619;28;20014;-63
2022/10/30 07:03:17;;;;;;;15.07;7.50;;;17.10;99.90;;;;;;5044415;28;20036;-62
2022/10/30 07:05:43;;;;;;;14.05;7.53;;;17.20;99.90;;;;;;5052863;28;20025;-63
2022/10/30 07:08:09;;;;;;;18.75;8.07;;;17.10;99.90;;;;;;5047615;28;20090;-63
2022/10/30 07:10:34;;;;;;;15.02;8.05;;;17.10;99.90;;;;;;5050367;28;20474;-71
2022/10/30 07:13:00;;;;;;;11.60;7.47;;;17.10;99.90;;;;;;5050578;28;20021;-62
2022/10/30 07:15:26;;;;;;;19.83;8.38;;;17.10;99.90;;;;;;5049744;28;20394;-67
2022/10/30 07:18:01;;;;;;;13.80;8.02;;;17.10;99.90;;;;;;5050923;28;20535;-65
2022/10/30 07:20:28;;;;;;;20.83;8.18;;;17.20;99.90;;;;;;5045462;28;20076;-64
2022/10/30 07:22:54;;;;;;;12.23;7.53;;;17.20;99.90;;;;;;5032414;28;20104;-66
2022/10/30 07:25:20;;;;;;;16.65;7.53;;;17.10;99.90;;;;;;5033806;28;20195;-72
2022/10/30 07:27:50;;;;;;;18.42;8.05;;;17.20;99.90;;;;;;5036842;28;20553;-64
2022/10/30 07:30:19;;;;;;;12.93;7.35;;;17.10;99.90;;;;;;5045951;28;20040;-62
2022/10/30 07:32:45;;;;;;;13.75;7.03;;;17.10;99.90;;;;;;5037907;28;20033;-64
2022/10/30 07:35:13;;;;;;;16.27;7.80;;;17.20;99.90;;;;;;5034029;28;20100;-62
2022/10/30 07:37:39;;;;;;;12.05;8.18;;;17.20;99.90;;;;;;5053786;28;20035;-68
2022/10/30 07:40:06;;;;;;;11.65;6.85;;;17.20;99.90;;;;;;5050873;28;20105;-67
2022/10/30 07:42:32;;;;;;;15.13;7.63;;;17.20;99.90;;;;;;5052751;28;20039;-61
2022/10/30 07:44:58;;;;;;;12.40;7.13;;;17.20;99.90;;;;;;5052569;28;20092;-65
2022/10/30 07:47:24;;;;;;;16.25;6.80;;;17.20;99.90;;;;;;5052689;28;20061;-62
2022/10/30 07:49:49;;;;;;;12.82;7.72;;;17.20;99.90;;;;;;5052060;28;20532;-61
2022/10/30 07:52:15;;;;;;;15.43;8.18;;;17.20;99.90;;;;;;5053518;28;20029;-65
2022/10/30 07:54:41;;;;;;;14.77;7.50;;;17.20;99.90;;;;;;5052422;28;20025;-72
2022/10/30 07:57:07;;;;;;;13.52;7.40;;;17.30;99.90;;;;;;5051391;28;20071;-68
2022/10/30 07:59:32;;;;;;;15.90;7.78;;;17.30;99.90;;;;;;5051034;28;20036;-63
2022/10/30 08:01:59;;;;;;;12.40;7.38;;;17.30;99.90;;;;;;5052289;28;20028;-76
2022/10/30 08:04:25;;;;;;;14.73;7.82;;;17.30;99.90;;;;;;5052665;28;20535;-70
2022/10/30 08:06:52;;;;;;;12.40;7.38;;;17.30;99.90;;;;;;5050829;28;20544;-75
2022/10/30 08:09:18;;;;;;;17.70;7.60;;;17.30;99.90;;;;;;5050927;28;20036;-63
2022/10/30 08:11:43;;;;;;;19.00;8.35;;;17.40;99.90;;;;;;5049508;28;20393;-61
2022/10/30 08:14:09;;;;;;;13.90;8.38;;;17.40;99.90;;;;;;5052149;28;20060;-63
2022/10/30 08:16:34;;;;;;;12.13;5.78;;;17.40;99.90;;;;;;5053030;28;20029;-62
2022/10/30 08:19:00;;;;;;;12.10;6.47;;;17.40;99.90;;;;;;5050849;28;20029;-63
2022/10/30 08:21:25;;;;;;;8.60;5.78;;;17.40;99.90;;;;;;5052413;28;20021;-60
2022/10/30 08:23:51;;;;;;;9.77;5.38;;;17.40;99.90;;;;;;5050129;28;20359;-63
2022/10/30 08:26:17;;;;;;;14.85;6.78;;;17.50;99.90;;;;;;5050511;28;20485;-62
2022/10/30 08:28:42;;;;;;;12.00;5.90;;;17.50;99.90;;;;;;5052247;28;20040;-62
2022/10/30 08:31:08;;;;;;;17.13;6.90;;;17.50;99.90;;;;;;5052685;28;20083;-63
2022/10/30 08:33:34;;;;;;;15.95;7.45;;;17.50;99.90;;;;;;5052839;28;20029;-61
2022/10/30 08:36:00;;;;;;;15.63;7.70;;;17.50;99.90;;;;;;5052484;28;20443;-64
2022/10/30 08:38:27;;;;;;;10.70;7.03;;;17.50;99.90;;;;;;5053781;28;20059;-62
2022/10/30 08:40:54;;;;;;;15.70;7.57;;;17.50;99.90;;;;;;5048794;28;20555;-63
2022/10/30 08:43:19;;;;;;;10.60;6.22;;;17.60;99.90;;;;;;5045527;28;20025;-62
2022/10/30 08:45:45;;;;;;;11.70;6.68;;;17.60;99.90;;;;;;5049975;28;20722;-70
2022/10/30 08:48:14;;;;;;;17.92;6.93;;;17.60;99.90;;;;;;5056090;28;20086;-73
2022/10/30 08:50:39;;;;;;;15.95;7.78;;;17.60;99.90;;;;;;5058982;28;20029;-64
2022/10/30 08:53:10;;;;;;;13.98;6.57;;;17.60;99.90;;;;;;5045098;28;20032;-61
2022/10/30 08:55:36;;;;;;;17.20;6.75;;;17.60;99.90;;;;;;5055643;28;20075;-76
2022/10/30 08:58:03;;;;;;;13.77;6.82;;;17.70;99.90;;;;;;5038318;28;20798;-68
2022/10/30 09:00:29;;;;;;;12.15;6.55;;;17.70;99.90;;;;;;5059627;28;20036;-62
2022/10/30 09:02:55;;;;;;;10.65;6.28;;;17.70;99.90;;;;;;5050530;28;20021;-64
2022/10/30 09:05:20;;;;;;;12.27;5.90;;;17.70;99.90;;;;;;5055952;28;20028;-74
2022/10/30 09:07:46;;;;;;;13.93;6.88;;;17.70;99.90;;;;;;5059878;28;20032;-68
2022/10/30 09:10:13;;;;;;;11.43;6.10;;;17.70;99.90;;;;;;5052428;28;20155;-76
2022/10/30 09:12:39;;;;;;;12.98;6.35;;;17.80;99.90;;;;;;5053061;28;20017;-77
2022/10/30 09:15:05;;;;;;;13.32;6.07;;;17.80;99.90;;;;;;5055208;28;20435;-74
2022/10/30 09:17:31;;;;;;;14.18;7.00;;;17.80;99.90;;;;;;5058460;28;20052;-73
2022/10/30 09:19:56;;;;;;;12.13;5.88;;;17.80;99.90;;;;;;5059450;28;20474;-64
2022/10/30 09:22:22;;;;;;;17.27;7.30;;;17.90;99.90;;;;;;5065128;28;20142;-75
2022/10/30 09:24:48;;;;;;;17.92;7.28;;;17.80;99.90;;;;;;5057115;28;20530;-73
2022/10/30 09:27:14;;;;;;;23.30;7.15;;;17.90;99.90;;;;;;5061817;28;20036;-71
2022/10/30 09:29:39;;;;;;;11.07;6.07;;;17.90;99.90;;;;;;5061513;28;20029;-62
2022/10/30 09:32:09;;;;;;;14.02;6.22;;;17.90;99.90;;;;;;5053841;28;20420;-74
2022/10/30 09:34:38;;;;;;;13.63;6.10;;;17.90;99.90;;;;;;5060597;28;20021;-68
2022/10/30 09:37:04;;;;;;;16.17;5.32;;;17.90;99.90;;;;;;5032343;28;20029;-72
2022/10/30 09:39:30;;;;;;;19.38;6.20;;;17.90;99.90;;;;;;5046144;28;20123;-69
2022/10/30 09:42:07;;;;;;;10.32;5.50;;;17.90;99.90;;;;;;5043697;28;20506;-74
2022/10/30 09:45:24;;;;;;;16.67;6.15;;;18.00;99.90;;;;;;5045536;28;20549;-69
2022/10/30 09:48:11;;;;;;;14.07;6.10;;;18.00;99.90;;;;;;5047483;28;20041;-64
2022/10/30 09:50:56;;;;;;;12.73;7.07;;;18.00;99.90;;;;;;5052631;28;20093;-63
2022/10/30 09:53:40;;;;;;;12.98;5.90;;;18.00;99.90;;;;;;5043757;28;20057;-74
2022/10/30 09:56:23;;;;;;;14.68;5.63;;;18.00;99.90;;;;;;5051114;28;20052;-67
2022/10/30 09:59:16;;;;;;;13.98;5.97;;;18.00;99.90;;;;;;5062569;28;20035;-70
2022/10/30 10:01:50;;;;;;;15.30;6.53;;;18.10;99.90;;;;;;5052456;28;20074;-62
2022/10/30 10:04:37;;;;;;;10.18;5.25;;;18.10;99.90;;;;;;5059791;28;20040;-74
2022/10/30 10:07:19;;;;;;;12.27;5.47;;;18.10;99.90;;;;;;5055179;28;20119;-61
2022/10/30 10:09:48;;;;;;;14.30;6.78;;;18.10;99.90;;;;;;5051726;28;20064;-77
2022/10/30 10:12:32;;;;;;;11.20;5.82;;;18.10;99.90;;;;;;5040940;28;20052;-62
2022/10/30 10:15:02;;;;;;;12.50;5.68;;;18.20;99.90;;;;;;5053190;28;20034;-68
2022/10/30 10:17:34;;;;;;;12.15;6.18;;;18.20;99.90;;;;;;5040303;28;20056;-71
2022/10/30 10:20:01;;;;;;;12.63;5.63;;;18.10;99.90;;;;;;5051395;28;20056;-62
2022/10/30 10:22:49;;;;;;;12.00;5.50;;;18.20;99.90;;;;;;5050115;28;20022;-75
2022/10/30 10:25:18;;;;;;;11.60;5.28;;;18.20;99.90;;;;;;5044627;28;20044;-61
2022/10/30 10:28:02;;;;;;;13.60;5.55;;;18.20;99.90;;;;;;5044620;28;20059;-62
2022/10/30 10:30:40;;;;;;;15.05;5.85;;;18.20;99.90;;;;;;5041198;28;20166;-61
2022/10/30 10:33:22;;;;;;;13.38;6.03;;;18.20;99.90;;;;;;5044579;28;20033;-63
2022/10/30 10:36:06;;;;;;;18.33;6.05;;;18.30;99.90;;;;;;5044485;28;20029;-64
2022/10/30 10:38:58;;;;;;;16.63;6.72;;;18.30;99.90;;;;;;5041885;28;20032;-62
2022/10/30 10:41:41;;;;;;;11.23;6.30;;;18.30;99.90;;;;;;5046401;28;20132;-73
2022/10/30 10:44:35;;;;;;;14.00;5.55;;;18.30;99.90;;;;;;5043931;28;20040;-75
2022/10/30 10:47:31;;;;;;;15.38;6.28;;;18.30;99.90;;;;;;5042319;28;20656;-62
2022/10/30 10:50:24;;;;;;;12.85;6.05;;;18.30;99.90;;;;;;5053993;28;20029;-61
2022/10/30 10:52:56;;;;;;;13.15;5.70;;;18.40;99.90;;;;;;5035170;28;20056;-67
2022/10/30 10:55:24;;;;;;;;;;;18.40;99.90;;;;;;5045234;28;20021;-63
2022/10/30 10:57:51;;;;;;;13.98;7.50;;;18.40;99.90;;;;;;5056761;28;19917;-61
2022/10/30 11:00:19;;;;;;;16.23;6.57;;;18.40;99.90;;;;;;5046272;28;20025;-67
2022/10/30 11:03:04;;;;;;;17.95;7.72;;;18.40;99.90;;;;;;5044292;28;20037;-68
2022/10/30 11:05:40;;;;;;;15.15;6.63;;;18.40;99.90;;;;;;5043141;28;20488;-65
2022/10/30 11:08:27;;;;;;;14.27;7.05;;;18.50;99.90;;;;;;5044676;28;20044;-62
2022/10/30 11:11:01;;;;;;;13.68;6.88;;;18.50;99.90;;;;;;5049547;28;20104;-63
2022/10/30 11:13:33;;;;;;;12.88;8.20;;;18.50;99.90;;;;;;5043041;28;20473;-76
2022/10/30 11:16:20;;;;;;;13.23;6.57;;;18.50;99.90;;;;;;5048345;28;20078;-67
2022/10/30 11:18:48;;;;;;;14.10;6.95;;;18.50;99.90;;;;;;5058971;28;20049;-69
2022/10/30 11:21:23;;;;;;;14.38;7.00;;;18.50;99.90;;;;;;5051359;28;20021;-63
2022/10/30 11:23:48;;;;;;;11.68;6.85;;;18.60;99.90;;;;;;5043640;28;20754;-66
2022/10/30 11:26:17;;;;;;;14.30;6.90;;;18.60;99.90;;;;;;5054504;28;20040;-64
2022/10/30 11:28:47;;;;;;;11.00;7.60;;;18.60;99.90;;;;;;5046073;28;20055;-63
2022/10/30 11:31:26;;;;;;;14.80;8.13;;;18.60;99.90;;;;;;5051159;28;20105;-74
2022/10/30 11:33:53;;;;;;;17.83;12.65;;;18.60;99.90;;;;;;5055417;28;20078;-72
2022/10/30 11:36:22;;;;;;;22.08;17.55;;;18.70;99.90;;;;;;5057753;28;20072;-70
2022/10/30 11:38:49;;;;;;;31.35;18.15;;;18.70;99.90;;;;;;5047992;28;20029;-73
2022/10/30 11:41:15;;;;;;;24.60;15.07;;;18.80;99.90;;;;;;5051836;28;20416;-65
2022/10/30 11:43:43;;;;;;;19.38;11.63;;;18.80;99.90;;;;;;5051346;28;20031;-64
2022/10/30 11:46:15;;;;;;;15.65;8.77;;;18.80;99.90;;;;;;5049533;28;20057;-73
2022/10/30 11:48:42;;;;;;;;;;;18.80;99.90;;;;;;5049491;28;20033;-72
2022/10/30 11:51:10;;;;;;;23.77;10.32;;;18.80;99.90;;;;;;5049411;28;19935;-70
2022/10/30 11:53:47;;;;;;;17.55;11.40;;;18.80;99.90;;;;;;5049387;28;20057;-71
2022/10/30 11:56:21;;;;;;;17.85;11.00;;;18.80;99.90;;;;;;5046448;28;20091;-63
2022/10/30 11:58:52;;;;;;;17.30;10.07;;;18.80;99.90;;;;;;5042714;28;20025;-64
2022/10/30 12:01:37;;;;;;;13.68;9.00;;;18.90;99.90;;;;;;5041971;28;20041;-63
2022/10/30 12:04:21;;;;;;;19.48;9.05;;;18.90;99.90;;;;;;5041048;28;20036;-66
2022/10/30 12:06:49;;;;;;;13.02;8.50;;;18.90;99.90;;;;;;5045471;28;20032;-64
2022/10/30 12:09:22;;;;;;;16.95;9.32;;;18.90;99.90;;;;;;5050371;28;20037;-62
2022/10/30 12:11:48;;;;;;;17.00;8.85;;;18.90;99.90;;;;;;5046426;28;20033;-64
2022/10/30 12:14:22;;;;;;;18.08;8.82;;;18.90;99.90;;;;;;5049474;28;20036;-62
2022/10/30 12:16:53;;;;;;;17.58;8.10;;;19.00;99.90;;;;;;5049037;28;20493;-61
2022/10/30 12:19:22;;;;;;;15.57;7.80;;;19.00;99.90;;;;;;5057378;28;20111;-63
2022/10/30 12:21:52;;;;;;;15.63;7.13;;;19.00;99.90;;;;;;5045477;28;20033;-62
2022/10/30 12:24:17;;;;;;;9.52;6.18;;;19.00;99.90;;;;;;5045072;28;20032;-64
2022/10/30 12:26:50;;;;;;;12.70;6.68;;;19.00;99.90;;;;;;5046340;28;20436;-64
2022/10/30 12:29:18;;;;;;;17.67;7.50;;;19.10;99.90;;;;;;5039806;28;20210;-64
2022/10/30 12:32:04;;;;;;;12.68;7.53;;;19.10;99.90;;;;;;5041988;28;20391;-61
2022/10/30 12:34:40;;;;;;;14.13;6.30;;;19.10;99.90;;;;;;5039227;28;20414;-72
2022/10/30 12:37:31;;;;;;;9.60;6.35;;;19.10;99.90;;;;;;5037740;28;20083;-64
2022/10/30 12:40:00;;;;;;;11.30;6.55;;;19.10;99.90;;;;;;5044361;28;20017;-62
2022/10/30 12:42:26;;;;;;;12.35;5.97;;;19.10;99.90;;;;;;5048371;28;20033;-72
2022/10/30 12:45:11;;;;;;;12.20;5.95;;;19.20;99.90;;;;;;5045956;28;20021;-70
2022/10/30 12:48:01;;;;;;;11.88;7.30;;;19.20;99.90;;;;;;5050738;28;20135;-68
2022/10/30 12:51:09;;;;;;;10.25;6.05;;;19.20;99.90;;;;;;5043402;28;20490;-62